Time;durP1;ratioP1;P1;durP2;ratioP2;P2;SDS_P1;SDS_P2;PMS_P1;PMS_P2;Temp;Humidity;BMP_temperature;BMP_pressure;BME280_temperature;BME280_humidity;BME280_pressure;Samples;Min_cycle;Max_cycle;Signal;HPM_P1;HPM_P2
2021/12/10 00:01:49;;;;;;;9.85;4.57;;;;;;;3.36;79.09;98101.91;4896439;29;20048;-62
2021/12/10 00:04:19;;;;;;;8.40;4.50;;;;;;;3.36;78.89;98104.47;4896732;28;20040;-63
2021/12/10 00:06:49;;;;;;;8.30;5.22;;;;;;;3.37;78.72;98089.94;4896834;29;20041;-62
2021/12/10 00:09:28;;;;;;;13.68;4.63;;;;;;;3.36;78.81;98089.09;4881346;29;20127;-62
2021/12/10 00:12:03;;;;;;;6.68;4.50;;;;;;;3.37;78.71;98079.69;4881319;28;20037;-62
2021/12/10 00:14:34;;;;;;;11.88;4.43;;;;;;;3.37;78.90;98069.44;4880850;29;20038;-63
2021/12/10 00:17:04;;;;;;;12.90;5.32;;;;;;;3.36;79.26;98066.03;4880836;29;20048;-63
2021/12/10 00:19:42;;;;;;;9.32;4.07;;;;;;;3.35;78.79;98060.03;4896029;29;20515;-63
2021/12/10 00:22:19;;;;;;;10.07;4.20;;;;;;;3.37;78.90;98061.75;4896487;29;20045;-63
2021/12/10 00:24:50;;;;;;;8.30;3.85;;;;;;;3.37;78.48;98054.97;4896604;29;20039;-63
2021/12/10 00:27:28;;;;;;;9.45;4.65;;;;;;;3.37;78.77;98051.53;4896209;29;20123;-63
2021/12/10 00:30:05;;;;;;;14.63;4.85;;;;;;;3.35;78.98;98039.56;4896199;29;20041;-63
2021/12/10 00:32:40;;;;;;;13.48;4.60;;;;;;;3.36;78.41;98037.88;4897386;29;20476;-63
2021/12/10 00:35:12;;;;;;;13.02;3.80;;;;;;;3.36;78.60;98025.06;4911890;28;20131;-63
2021/12/10 00:37:40;;;;;;;10.13;4.85;;;;;;;3.36;78.91;98025.06;4896272;29;20045;-63
2021/12/10 00:40:12;;;;;;;10.60;4.50;;;;;;;3.36;78.73;98007.16;4895987;29;20041;-62
2021/12/10 00:42:45;;;;;;;7.47;4.38;;;;;;;3.38;78.63;97994.34;4897661;29;20044;-63
2021/12/10 00:45:24;;;;;;;13.27;4.13;;;;;;;3.38;79.10;97986.66;4897450;29;20053;-62
2021/12/10 00:47:58;;;;;;;12.50;4.28;;;;;;;3.37;78.82;97974.69;4895849;29;20442;-62
2021/12/10 00:50:33;;;;;;;12.02;4.03;;;;;;;3.37;78.81;97969.59;4911763;29;20044;-62
2021/12/10 00:52:58;;;;;;;10.98;4.93;;;;;;;3.37;78.63;97961.91;4895624;29;20033;-63
2021/12/10 00:55:30;;;;;;;9.45;4.45;;;;;;;3.37;79.15;97952.53;4896621;29;20041;-63
2021/12/10 00:57:59;;;;;;;13.02;4.53;;;;;;;3.38;78.96;97936.31;4897209;29;20135;-62
2021/12/10 01:00:29;;;;;;;12.48;4.03;;;;;;;3.38;78.59;97932.88;4896922;29;20048;-62
2021/12/10 01:02:59;;;;;;;10.10;4.35;;;;;;;3.39;79.13;97926.94;4895759;29;20057;-62
2021/12/10 01:05:31;;;;;;;10.43;3.67;;;;;;;3.40;78.81;97920.97;4911269;28;20041;-62
2021/12/10 01:08:03;;;;;;;8.55;4.25;;;;;;;3.39;78.48;97909.00;4895638;29;20488;-62
2021/12/10 01:10:39;;;;;;;7.82;4.30;;;;;;;3.39;78.37;97914.13;4895793;29;20044;-62
2021/12/10 01:13:18;;;;;;;8.35;3.90;;;;;;;3.39;78.48;97888.50;4880420;29;20131;-62
2021/12/10 01:24:53;;;;;;;7.47;3.42;;;;;;;3.36;78.79;97861.19;4896547;29;20037;-62
2021/12/10 01:27:29;;;;;;;7.88;3.60;;;;;;;3.38;78.21;97859.50;4911295;29;20127;-62
2021/12/10 01:30:03;;;;;;;6.30;3.92;;;;;;;3.37;78.77;97844.09;4896624;29;20052;-62
2021/12/10 01:32:32;;;;;;;9.45;3.38;;;;;;;3.39;78.47;97835.63;4896501;29;20072;-63
2021/12/10 01:35:06;;;;;;;14.32;4.47;;;;;;;3.37;78.43;97827.06;4896290;29;20051;-62
2021/12/10 01:37:35;;;;;;;12.68;4.00;;;;;;;3.35;78.88;97824.47;4977521;28;20106;-63
2021/12/10 01:40:04;;;;;;;7.85;3.38;;;;;;;3.38;78.38;97821.09;4896483;29;20051;-63
2021/12/10 01:42:46;;;;;;;9.98;3.45;;;;;;;3.37;78.71;97819.38;4880024;28;20099;-63
2021/12/10 01:45:26;;;;;;;30.73;3.47;;;;;;;3.37;78.46;97821.06;4895153;29;20051;-63
2021/12/10 01:48:12;;;;;;;7.00;3.25;;;;;;;3.37;78.39;97808.25;4896519;29;20040;-63
2021/12/10 01:50:46;;;;;;;5.47;2.67;;;;;;;3.35;78.78;97806.53;4895488;29;20152;-63
2021/12/10 01:53:17;;;;;;;10.57;3.97;;;;;;;3.38;78.91;97797.16;4896135;29;20072;-63
2021/12/10 01:55:52;;;;;;;8.68;2.92;;;;;;;3.37;78.70;97795.44;4894940;29;20448;-62
2021/12/10 01:58:25;;;;;;;9.82;3.50;;;;;;;3.36;78.97;97802.28;4895033;29;20388;-64
2021/12/10 02:01:00;;;;;;;8.10;3.92;;;;;;;3.37;78.64;97787.75;4911004;29;20041;-63
2021/12/10 02:03:31;;;;;;;10.52;4.60;;;;;;;3.35;78.57;97788.59;4879053;29;20045;-63
2021/12/10 02:06:00;;;;;;;6.97;3.55;;;;;;;3.36;78.60;97779.25;4894850;29;20493;-63
2021/12/10 02:08:28;;;;;;;11.18;2.97;;;;;;;3.35;78.20;97774.97;4893952;29;20045;-63
2021/12/10 02:10:53;;;;;;;10.30;3.70;;;;;;;3.37;78.68;97772.41;4895758;29;20086;-63
2021/12/10 02:13:22;;;;;;;8.38;3.63;;;;;;;3.34;77.99;97771.56;4894707;29;20036;-63
2021/12/10 02:15:54;;;;;;;13.48;3.58;;;;;;;3.37;78.03;97763.03;4894845;29;20044;-63
2021/12/10 02:18:25;;;;;;;7.32;4.30;;;;;;;3.36;78.69;97761.31;4894662;28;20032;-62
2021/12/10 02:20:50;;;;;;;5.05;3.28;;;;;;;3.34;78.20;97745.94;4894633;29;20032;-63
2021/12/10 02:23:16;;;;;;;10.23;3.22;;;;;;;3.34;78.98;97747.63;4894759;29;20043;-63
2021/12/10 02:25:42;;;;;;;14.45;3.33;;;;;;;3.33;78.08;97735.69;4895765;29;20044;-63
2021/12/10 02:28:12;;;;;;;10.45;3.38;;;;;;;3.34;78.67;97737.41;4896126;29;20158;-63
2021/12/10 02:30:44;;;;;;;9.68;3.55;;;;;;;3.33;78.18;97725.44;4895727;29;20044;-63
2021/12/10 02:33:12;;;;;;;6.72;2.63;;;;;;;3.33;78.46;97726.31;4878765;29;20040;-63
2021/12/10 02:35:44;;;;;;;9.73;4.10;;;;;;;3.33;78.13;97725.44;4895138;29;20099;-63
2021/12/10 02:38:15;;;;;;;8.45;3.67;;;;;;;3.35;78.04;97719.47;4894196;29;20044;-63
2021/12/10 02:40:43;;;;;;;6.93;3.45;;;;;;;3.37;78.27;97710.94;4895675;29;20037;-62
2021/12/10 02:43:14;;;;;;;5.25;2.80;;;;;;;3.37;78.29;97711.81;4894457;29;20087;-62
2021/12/10 02:45:49;;;;;;;6.68;3.75;;;;;;;3.35;78.10;97691.31;4894450;29;20045;-64
2021/12/10 02:48:15;;;;;;;11.45;2.90;;;;;;;3.37;78.31;97691.34;4895567;29;20041;-63
2021/12/10 02:50:49;;;;;;;5.72;2.95;;;;;;;3.34;78.11;97674.25;4894354;29;20504;-63
2021/12/10 02:53:23;;;;;;;6.70;2.55;;;;;;;3.35;78.10;97673.38;4894427;29;20137;-62
2021/12/10 02:55:52;;;;;;;11.45;3.95;;;;;;;3.36;78.37;97676.81;4894236;29;20069;-63
2021/12/10 02:58:21;;;;;;;9.70;2.90;;;;;;;3.37;78.40;97663.16;4878535;29;20060;-62
2021/12/10 03:00:53;;;;;;;10.18;3.03;;;;;;;3.35;77.87;97663.13;4878554;28;20115;-63
2021/12/10 03:03:23;;;;;;;9.57;3.30;;;;;;;3.36;77.96;97648.66;4894103;29;20083;-62
2021/12/10 03:05:55;;;;;;;8.13;3.00;;;;;;;3.34;78.40;97640.09;4895369;29;20128;-62
2021/12/10 03:08:23;;;;;;;9.43;2.80;;;;;;;3.36;78.24;97643.53;4895397;29;20074;-62
2021/12/10 03:10:54;;;;;;;6.15;3.03;;;;;;;3.38;78.31;97630.72;4895173;29;20514;-63
2021/12/10 03:13:26;;;;;;;15.07;3.03;;;;;;;3.37;78.32;97623.88;4894985;29;20373;-62
2021/12/10 03:15:57;;;;;;;6.53;2.63;;;;;;;3.35;77.44;97616.22;4894321;28;20123;-62
2021/12/10 03:18:23;;;;;;;7.20;2.95;;;;;;;3.35;78.30;97619.59;4894121;29;20095;-63
2021/12/10 03:20:53;;;;;;;8.15;3.10;;;;;;;3.34;77.80;97617.94;4898028;29;20044;-63
2021/12/10 03:23:24;;;;;;;7.28;2.67;;;;;;;3.36;77.78;97602.56;4898323;29;20036;-63
2021/12/10 03:25:56;;;;;;;10.18;3.58;;;;;;;3.35;77.70;97606.81;4898815;29;20119;-63
2021/12/10 03:28:24;;;;;;;6.78;3.25;;;;;;;3.33;77.83;97588.06;4882056;29;20041;-63
2021/12/10 03:30:51;;;;;;;9.10;3.70;;;;;;;3.33;77.57;97598.28;4898240;29;20047;-63
2021/12/10 03:33:17;;;;;;;7.88;2.80;;;;;;;3.32;77.94;97583.78;4897204;28;20036;-63
2021/12/10 03:35:46;;;;;;;8.13;3.25;;;;;;;3.34;77.67;97579.53;4897194;29;20045;-63
2021/12/10 03:38:20;;;;;;;15.60;2.75;;;;;;;3.32;77.64;97572.66;4896913;28;20044;-63
2021/12/10 03:40:49;;;;;;;11.35;3.90;;;;;;;3.32;77.90;97565.84;4881562;29;20500;-63
2021/12/10 03:43:22;;;;;;;12.60;3.78;;;;;;;3.31;77.80;97566.69;4898132;29;20085;-62
2021/12/10 03:45:53;;;;;;;14.00;3.85;;;;;;;3.31;77.70;97553.91;4898092;29;20041;-63
2021/12/10 03:48:30;;;;;;;7.03;2.80;;;;;;;3.32;77.80;97552.19;4896870;28;20041;-62
2021/12/10 03:51:03;;;;;;;12.93;3.67;;;;;;;3.31;77.56;97530.84;4898206;29;20045;-62
2021/12/10 03:53:28;;;;;;;7.90;2.72;;;;;;;3.32;77.65;97521.44;4896275;29;20036;-62
2021/12/10 03:56:03;;;;;;;7.90;3.08;;;;;;;3.31;77.47;97523.19;4897757;29;20051;-62
2021/12/10 03:58:35;;;;;;;7.00;2.65;;;;;;;3.29;78.02;97506.94;4881288;29;20051;-63
2021/12/10 04:01:05;;;;;;;10.00;3.20;;;;;;;3.30;77.41;97500.97;4897830;29;20049;-63
2021/12/10 04:03:32;;;;;;;7.28;3.42;;;;;;;3.31;77.68;97504.38;4897872;29;20056;-63
2021/12/10 04:05:57;;;;;;;8.93;3.17;;;;;;;3.31;77.96;97491.56;4880909;28;20041;-63
2021/12/10 04:08:32;;;;;;;10.80;2.85;;;;;;;3.33;77.16;97485.63;4896453;29;20044;-63
2021/12/10 04:11:10;;;;;;;10.52;2.67;;;;;;;3.32;77.24;97475.38;4896558;29;20388;-63
2021/12/10 04:13:36;;;;;;;10.10;4.03;;;;;;;3.31;77.28;97482.22;4978584;28;20048;-63
2021/12/10 04:16:08;;;;;;;7.15;2.70;;;;;;;3.30;77.00;97483.06;4897541;29;20029;-62
2021/12/10 04:18:39;;;;;;;3.78;2.95;;;;;;;3.31;77.34;97476.22;4881112;29;20095;-63
2021/12/10 04:21:12;;;;;;;12.98;3.70;;;;;;;3.31;77.31;97471.09;4896388;29;20098;-63
2021/12/10 04:23:44;;;;;;;7.05;3.50;;;;;;;3.31;77.28;97464.28;4897374;29;20037;-63
2021/12/10 04:26:18;;;;;;;8.85;3.00;;;;;;;3.32;77.78;97468.56;4897443;29;20040;-63
2021/12/10 04:28:49;;;;;;;8.20;3.15;;;;;;;3.31;76.92;97455.72;4896322;29;20071;-63
2021/12/10 04:31:18;;;;;;;14.43;4.70;;;;;;;3.32;77.44;97468.56;4895565;29;20041;-63
2021/12/10 04:33:48;;;;;;;8.25;2.85;;;;;;;3.33;77.64;97443.78;4897355;29;20036;-62
2021/12/10 04:36:18;;;;;;;8.82;2.72;;;;;;;3.33;77.50;97444.66;4897398;29;20451;-62
2021/12/10 04:38:49;;;;;;;11.23;3.03;;;;;;;3.34;77.38;97443.81;4897213;29;20037;-63
2021/12/10 04:41:20;;;;;;;9.75;3.70;;;;;;;3.33;77.20;97433.56;4896446;28;20116;-63
2021/12/10 04:43:47;;;;;;;7.55;2.70;;;;;;;3.33;77.39;97441.22;4896351;29;20090;-62
2021/12/10 04:46:15;;;;;;;10.70;2.97;;;;;;;3.32;77.15;97429.28;4896024;28;20041;-63
2021/12/10 04:48:57;;;;;;;9.80;2.95;;;;;;;3.34;77.12;97425.91;4895985;29;20086;-62
2021/12/10 04:51:28;;;;;;;6.95;2.88;;;;;;;3.34;77.25;97419.91;4880214;28;20127;-63
2021/12/10 04:53:57;;;;;;;9.85;3.42;;;;;;;3.35;76.70;97413.94;4896088;29;20095;-62
2021/12/10 04:56:26;;;;;;;7.28;2.83;;;;;;;3.35;77.08;97417.34;4896872;29;20045;-63
2021/12/10 04:58:52;;;;;;;8.05;2.75;;;;;;;3.35;77.50;97417.34;4880416;29;20040;-62
2021/12/10 05:01:23;;;;;;;9.20;3.30;;;;;;;3.35;77.27;97404.53;4896953;29;20136;-62
2021/12/10 05:03:48;;;;;;;7.82;2.85;;;;;;;3.37;77.05;97408.81;4896837;29;20440;-62
2021/12/10 05:06:14;;;;;;;8.50;2.78;;;;;;;3.37;77.37;97408.81;4897291;29;20036;-62
2021/12/10 05:08:40;;;;;;;9.85;3.42;;;;;;;3.39;77.42;97407.09;4896807;29;20044;-62
2021/12/10 05:11:10;;;;;;;6.55;3.25;;;;;;;3.39;77.39;97407.97;4895522;28;20408;-62
2021/12/10 05:13:44;;;;;;;9.23;2.97;;;;;;;3.38;77.57;97407.97;4879684;29;20047;-62
2021/12/10 05:16:09;;;;;;;;;;;;;;;3.38;76.91;97410.53;4911554;28;20051;-62
2021/12/10 05:18:39;;;;;;;12.05;3.20;;;;;;;3.39;77.60;97409.66;4910993;28;19919;-62
2021/12/10 05:21:13;;;;;;;10.07;2.55;;;;;;;3.39;77.39;97405.41;4896892;29;20504;-62
2021/12/10 05:23:40;;;;;;;10.98;3.00;;;;;;;3.39;77.27;97396.88;4896630;29;20032;-62
2021/12/10 05:26:07;;;;;;;6.65;2.78;;;;;;;3.39;76.96;97394.31;4896593;29;20046;-63
2021/12/10 05:28:38;;;;;;;7.25;3.03;;;;;;;3.41;77.48;97390.91;4895520;29;20053;-63
2021/12/10 05:31:04;;;;;;;4.72;2.53;;;;;;;3.40;77.49;97385.78;4896424;29;20040;-63
2021/12/10 05:33:38;;;;;;;8.55;4.63;;;;;;;3.40;77.45;97381.53;4896343;29;20495;-63
2021/12/10 05:36:08;;;;;;;8.82;2.78;;;;;;;3.42;77.11;97376.41;4895352;29;20036;-63
2021/12/10 05:38:38;;;;;;;6.70;3.25;;;;;;;3.40;77.17;97371.28;4895143;29;20041;-63
2021/12/10 05:41:10;;;;;;;5.88;2.65;;;;;;;3.40;76.84;97370.41;4896330;29;20063;-62
2021/12/10 05:43:41;;;;;;;10.82;3.45;;;;;;;3.39;77.03;97364.44;4894992;29;20044;-62
2021/12/10 05:46:13;;;;;;;7.18;2.58;;;;;;;3.39;77.53;97353.34;4895392;29;20083;-62
2021/12/10 05:48:42;;;;;;;5.40;2.95;;;;;;;3.40;77.22;97353.38;4896246;29;20400;-63
2021/12/10 05:51:08;;;;;;;4.57;3.00;;;;;;;3.42;77.51;97361.03;4976842;28;20043;-62
2021/12/10 05:53:39;;;;;;;5.28;3.53;;;;;;;3.41;77.30;97349.09;4895117;28;20048;-63
2021/12/10 05:56:07;;;;;;;4.75;3.00;;;;;;;3.42;77.88;97356.78;4896103;29;20047;-63
2021/12/10 05:58:39;;;;;;;5.78;2.95;;;;;;;3.43;77.57;97355.06;4895387;29;20041;-63
2021/12/10 06:01:17;;;;;;;8.07;3.20;;;;;;;3.43;76.92;97361.03;4896277;29;20041;-63
2021/12/10 06:03:52;;;;;;;9.70;3.40;;;;;;;3.43;76.96;97350.78;4894995;29;20048;-63
2021/12/10 06:06:33;;;;;;;8.88;4.03;;;;;;;3.44;77.57;97351.66;4976862;28;20041;-63
2021/12/10 06:09:12;;;;;;;5.75;3.00;;;;;;;3.44;76.94;97349.09;4895999;29;20044;-63
2021/12/10 06:11:40;;;;;;;6.68;3.08;;;;;;;3.44;77.33;97342.25;4894712;29;20048;-62
2021/12/10 06:14:09;;;;;;;5.05;3.15;;;;;;;3.45;77.15;97335.44;4894756;29;20127;-62
2021/12/10 06:16:35;;;;;;;8.15;3.50;;;;;;;3.46;77.36;97344.81;4895713;29;20036;-62
2021/12/10 06:19:02;;;;;;;9.18;3.05;;;;;;;3.46;77.50;97332.03;4896100;29;20079;-63
2021/12/10 06:21:32;;;;;;;4.95;3.35;;;;;;;3.44;76.95;97329.44;4879044;29;20094;-63
2021/12/10 06:24:05;;;;;;;7.75;3.33;;;;;;;3.45;77.00;97330.31;4896365;29;20079;-63
2021/12/10 06:26:36;;;;;;;12.07;4.63;;;;;;;3.46;77.34;97326.91;4894821;29;20043;-63
2021/12/10 06:29:06;;;;;;;4.65;3.40;;;;;;;3.47;77.01;97324.34;4910199;29;20512;-63
2021/12/10 06:31:33;;;;;;;4.00;2.53;;;;;;;3.46;77.62;97312.38;4895646;29;20044;-62
2021/12/10 06:34:02;;;;;;;5.07;3.60;;;;;;;3.46;77.43;97306.41;4894695;29;20045;-63
2021/12/10 06:36:30;;;;;;;6.30;2.58;;;;;;;3.46;76.89;97299.56;4894777;29;20404;-62
2021/12/10 06:39:01;;;;;;;7.70;3.60;;;;;;;3.46;77.57;97307.25;4894720;29;20044;-62
2021/12/10 06:41:33;;;;;;;7.45;3.25;;;;;;;3.46;77.47;97309.81;4894456;29;20044;-62
2021/12/10 06:44:04;;;;;;;6.03;3.33;;;;;;;3.47;77.33;97295.31;4894505;28;20037;-63
2021/12/10 06:46:36;;;;;;;4.10;2.95;;;;;;;3.47;77.57;97303.00;4895861;29;20103;-62
2021/12/10 06:49:04;;;;;;;6.38;3.03;;;;;;;3.47;77.61;97301.28;4894555;29;20040;-62
2021/12/10 06:51:30;;;;;;;5.72;3.17;;;;;;;3.46;77.30;97298.72;4894515;29;20160;-63
2021/12/10 06:54:00;;;;;;;6.30;3.08;;;;;;;3.47;77.20;97303.00;4895774;29;20555;-63
2021/12/10 06:56:34;;;;;;;8.45;4.38;;;;;;;3.47;77.12;97305.56;4882131;29;20040;-62
2021/12/10 06:59:03;;;;;;;4.38;3.28;;;;;;;3.47;77.62;97306.41;4897437;28;20036;-63
2021/12/10 07:01:35;;;;;;;5.97;3.10;;;;;;;3.45;77.27;97302.16;4897284;29;20516;-63
2021/12/10 07:04:04;;;;;;;4.95;3.33;;;;;;;3.47;77.43;97303.84;4897834;29;20051;-62
2021/12/10 07:06:31;;;;;;;3.58;3.00;;;;;;;3.48;76.98;97304.72;4897488;29;20041;-62
2021/12/10 07:09:01;;;;;;;5.75;3.30;;;;;;;3.49;77.69;97303.88;4898576;29;20094;-63
2021/12/10 07:11:30;;;;;;;6.32;3.13;;;;;;;3.49;77.29;97304.69;4897092;29;20044;-63
2021/12/10 07:13:58;;;;;;;6.78;3.58;;;;;;;3.50;77.39;97303.00;4897316;29;20121;-63
2021/12/10 07:16:31;;;;;;;7.20;3.55;;;;;;;3.49;77.13;97312.38;4913508;28;20076;-62
2021/12/10 07:18:58;;;;;;;4.00;3.17;;;;;;;3.48;77.00;97303.00;4881638;29;20514;-63
2021/12/10 07:21:26;;;;;;;4.93;3.30;;;;;;;3.50;77.14;97310.69;4897226;28;20496;-62
2021/12/10 07:23:56;;;;;;;6.20;4.18;;;;;;;3.49;77.83;97306.44;4881539;28;20037;-63
2021/12/10 07:26:22;;;;;;;6.35;3.75;;;;;;;3.49;76.96;97311.53;4897381;29;20043;-62
2021/12/10 07:28:48;;;;;;;7.50;3.05;;;;;;;3.48;77.47;97300.44;4898632;29;20131;-62
2021/12/10 07:31:16;;;;;;;5.95;3.53;;;;;;;3.49;77.42;97314.09;4898188;29;20048;-63
2021/12/10 07:33:42;;;;;;;6.03;3.70;;;;;;;3.48;77.79;97305.56;4898169;29;20123;-63
2021/12/10 07:36:11;;;;;;;6.78;3.35;;;;;;;3.48;77.18;97310.69;4898232;29;20039;-62
2021/12/10 07:38:39;;;;;;;4.38;2.88;;;;;;;3.49;77.60;97311.53;4896997;29;20087;-62
2021/12/10 07:41:10;;;;;;;3.97;2.92;;;;;;;3.48;77.05;97314.97;4898132;29;20047;-63
2021/12/10 07:43:41;;;;;;;3.65;3.03;;;;;;;3.48;77.36;97305.56;4912327;29;20075;-63
2021/12/10 07:46:07;;;;;;;5.63;4.40;;;;;;;3.49;77.17;97303.88;4881488;29;20040;-63
2021/12/10 07:48:35;;;;;;;5.57;3.88;;;;;;;3.46;77.35;97302.13;4897963;29;20043;-63
2021/12/10 07:51:15;;;;;;;6.13;3.03;;;;;;;3.46;77.60;97294.44;4896754;29;20040;-62
2021/12/10 07:53:51;;;;;;;5.85;3.40;;;;;;;3.46;77.02;97297.00;4881514;28;20037;-63
2021/12/10 07:56:23;;;;;;;5.20;3.00;;;;;;;3.47;77.02;97287.63;4897044;29;20051;-62
2021/12/10 07:58:52;;;;;;;5.18;3.08;;;;;;;3.47;76.77;97291.03;4897884;29;20041;-63
2021/12/10 08:01:26;;;;;;;6.20;3.05;;;;;;;3.46;77.30;97289.34;4897471;29;20045;-62
2021/12/10 08:03:56;;;;;;;4.50;2.88;;;;;;;3.45;77.75;97295.31;4881462;29;20040;-62
2021/12/10 08:06:35;;;;;;;6.55;3.40;;;;;;;3.47;76.85;97292.75;4895233;29;20083;-62
2021/12/10 08:09:10;;;;;;;4.70;2.95;;;;;;;3.47;77.06;97288.47;4896610;29;20032;-63
2021/12/10 08:11:39;;;;;;;4.72;3.38;;;;;;;3.47;77.35;97293.59;4897517;29;20040;-63
2021/12/10 08:14:10;;;;;;;3.53;2.58;;;;;;;3.46;77.19;97296.16;4897464;29;20072;-63
2021/12/10 08:16:41;;;;;;;4.40;2.88;;;;;;;3.48;77.55;97291.91;4897460;29;20048;-63
2021/12/10 08:19:12;;;;;;;6.93;3.45;;;;;;;3.49;77.38;97302.13;4896318;29;20138;-63
2021/12/10 08:21:49;;;;;;;5.60;2.85;;;;;;;3.46;77.42;97307.25;4880889;29;20041;-63
2021/12/10 08:24:17;;;;;;;3.97;3.42;;;;;;;3.47;77.30;97303.84;4897552;29;20056;-63
2021/12/10 08:26:48;;;;;;;6.18;3.20;;;;;;;3.47;77.23;97308.97;4897330;29;20470;-63
2021/12/10 08:29:20;;;;;;;4.68;3.15;;;;;;;3.48;77.33;97303.00;4896625;28;20477;-62
2021/12/10 08:31:48;;;;;;;5.53;2.78;;;;;;;3.48;77.28;97307.28;4896424;29;20044;-62
2021/12/10 08:34:24;;;;;;;3.80;2.22;;;;;;;3.47;77.01;97303.00;4897275;29;20043;-62
2021/12/10 08:36:56;;;;;;;3.97;2.33;;;;;;;3.49;77.75;97306.44;4896145;28;20112;-63
2021/12/10 08:39:26;;;;;;;4.63;3.70;;;;;;;3.47;77.10;97293.59;4896385;29;20033;-63
2021/12/10 08:41:58;;;;;;;7.85;2.95;;;;;;;3.46;77.34;97301.28;4897354;29;20037;-63
2021/12/10 08:44:27;;;;;;;4.32;3.25;;;;;;;3.46;77.14;97301.28;4896355;28;20155;-63
2021/12/10 08:46:59;;;;;;;4.28;2.88;;;;;;;3.46;77.38;97301.28;4880646;28;20127;-63
2021/12/10 08:49:33;;;;;;;3.38;2.58;;;;;;;3.42;77.45;97299.56;4895999;29;20091;-63
2021/12/10 08:52:03;;;;;;;3.85;3.25;;;;;;;3.46;77.36;97291.06;4896185;29;20044;-62
2021/12/10 08:54:35;;;;;;;2.35;2.15;;;;;;;3.45;77.28;97295.31;4895826;29;20040;-62
2021/12/10 08:57:01;;;;;;;3.63;3.33;;;;;;;3.44;77.00;97292.75;4897288;29;20111;-63
2021/12/10 08:59:27;;;;;;;3.15;2.63;;;;;;;3.44;77.43;97295.31;4895884;29;20044;-62
2021/12/10 09:01:56;;;;;;;2.83;2.55;;;;;;;3.45;77.50;97297.03;4896686;29;20080;-63
2021/12/10 09:04:23;;;;;;;5.95;3.35;;;;;;;3.44;77.42;97290.19;4879791;29;20036;-62
2021/12/10 09:06:54;;;;;;;4.47;2.67;;;;;;;3.44;77.10;97301.28;4895597;28;20127;-62
2021/12/10 09:09:22;;;;;;;2.55;2.17;;;;;;;3.46;76.67;97291.06;4911500;29;20032;-63
2021/12/10 09:11:53;;;;;;;3.60;2.53;;;;;;;3.45;77.33;97297.03;4880004;28;20033;-63
2021/12/10 09:14:28;;;;;;;2.90;2.60;;;;;;;3.46;77.46;97299.56;4896793;29;20123;-62
2021/12/10 09:16:56;;;;;;;3.03;2.72;;;;;;;3.46;77.11;97293.63;4895125;29;20072;-62
2021/12/10 09:19:24;;;;;;;3.80;2.72;;;;;;;3.45;76.94;97294.47;4880089;29;20080;-63
2021/12/10 09:21:53;;;;;;;4.03;3.63;;;;;;;3.47;77.54;97297.88;4895410;29;20044;-63
2021/12/10 09:24:20;;;;;;;2.83;1.92;;;;;;;3.47;77.72;97297.88;4880081;28;20123;-63
2021/12/10 09:26:49;;;;;;;3.42;2.35;;;;;;;3.47;77.65;97290.19;4879779;28;20063;-63
2021/12/10 09:29:19;;;;;;;2.40;2.20;;;;;;;3.47;77.18;97295.31;4879967;29;20116;-63
2021/12/10 09:31:45;;;;;;;5.22;3.28;;;;;;;3.48;77.59;97294.47;4895447;29;20416;-62
2021/12/10 09:34:13;;;;;;;2.88;2.42;;;;;;;3.48;77.29;97291.91;4895117;29;20068;-62
2021/12/10 09:36:41;;;;;;;2.67;2.47;;;;;;;3.47;77.24;97290.19;4880057;29;20492;-62
2021/12/10 09:39:08;;;;;;;2.47;2.28;;;;;;;3.47;77.27;97297.88;4895034;29;20068;-63
2021/12/10 09:41:34;;;;;;;2.45;2.25;;;;;;;3.47;77.00;97297.88;4977436;28;20131;-62
2021/12/10 09:44:03;;;;;;;2.33;2.13;;;;;;;3.48;77.38;97300.44;4895106;29;20123;-62
2021/12/10 09:46:31;;;;;;;2.67;2.45;;;;;;;3.46;76.92;97291.06;4895381;29;20040;-62
2021/12/10 09:48:57;;;;;;;5.45;2.72;;;;;;;3.47;77.33;97300.44;4896406;29;20036;-63
2021/12/10 09:51:33;;;;;;;4.10;2.50;;;;;;;3.49;77.24;97296.19;4879851;29;20135;-62
2021/12/10 09:54:05;;;;;;;2.75;2.55;;;;;;;3.47;76.99;97306.41;4895334;29;20036;-63
2021/12/10 09:56:30;;;;;;;3.35;3.05;;;;;;;3.47;76.74;97298.72;4879363;29;20075;-63
2021/12/10 09:58:58;;;;;;;3.13;2.28;;;;;;;3.47;76.98;97305.56;4879280;29;20084;-63
2021/12/10 10:01:35;;;;;;;4.65;2.83;;;;;;;3.47;77.66;97298.72;4896093;29;20087;-63
2021/12/10 10:04:04;;;;;;;2.55;2.33;;;;;;;3.49;77.21;97306.44;4879223;28;20041;-63
2021/12/10 10:06:34;;;;;;;2.50;2.20;;;;;;;3.49;76.89;97316.66;4879267;29;20037;-63
2021/12/10 10:09:00;;;;;;;3.88;2.78;;;;;;;3.49;77.70;97311.53;4879290;29;20044;-63
2021/12/10 10:11:29;;;;;;;2.97;2.53;;;;;;;3.47;77.25;97314.09;4895995;29;20043;-63
2021/12/10 10:13:56;;;;;;;2.42;2.22;;;;;;;3.47;77.38;97316.66;4894647;29;20052;-63
2021/12/10 10:16:23;;;;;;;3.25;2.83;;;;;;;3.49;77.14;97314.09;4879093;28;20049;-63
2021/12/10 10:18:50;;;;;;;3.42;2.25;;;;;;;3.49;77.54;97311.53;4895973;29;20118;-63
2021/12/10 10:21:20;;;;;;;3.97;2.28;;;;;;;3.48;77.59;97309.84;4894755;28;20048;-63
2021/12/10 10:23:49;;;;;;;3.35;2.58;;;;;;;3.47;77.78;97314.09;4894595;29;20131;-63
2021/12/10 10:26:28;;;;;;;2.60;2.40;;;;;;;3.45;77.28;97305.53;4894591;28;20083;-63
2021/12/10 10:28:54;;;;;;;2.72;2.40;;;;;;;3.46;76.82;97317.50;4893857;29;20456;-63
2021/12/10 10:31:26;;;;;;;3.67;2.90;;;;;;;3.47;77.13;97314.09;4895727;29;20081;-63
2021/12/10 10:33:57;;;;;;;2.92;2.72;;;;;;;3.48;76.90;97320.09;4895745;29;20039;-63
2021/12/10 10:36:26;;;;;;;2.33;2.13;;;;;;;3.45;77.32;97318.34;4879149;29;20040;-63
2021/12/10 10:38:55;;;;;;;3.15;2.85;;;;;;;3.48;77.66;97320.09;4895637;29;20040;-63
2021/12/10 10:41:24;;;;;;;2.50;2.30;;;;;;;3.48;77.19;97320.09;4895793;29;20040;-63
2021/12/10 10:43:50;;;;;;;3.00;2.78;;;;;;;3.48;77.20;97320.09;4894562;29;20064;-63
2021/12/10 10:46:16;;;;;;;2.80;2.55;;;;;;;3.48;77.01;97327.75;4895561;29;20068;-63
2021/12/10 10:48:43;;;;;;;3.50;2.67;;;;;;;3.48;76.91;97326.03;4976533;28;20496;-64
2021/12/10 10:51:17;;;;;;;3.58;2.58;;;;;;;3.48;77.55;97326.03;4894374;29;20048;-63
2021/12/10 10:53:48;;;;;;;2.60;2.40;;;;;;;3.49;77.29;97332.03;4894138;29;20044;-62
2021/12/10 10:56:24;;;;;;;2.65;2.22;;;;;;;3.49;77.76;97334.59;4878690;29;20095;-62
2021/12/10 10:58:56;;;;;;;3.22;2.85;;;;;;;3.48;77.00;97338.84;4894260;29;20037;-62
2021/12/10 11:01:39;;;;;;;4.05;2.97;;;;;;;3.50;76.97;97344.00;4895169;29;20076;-62
2021/12/10 11:04:14;;;;;;;2.42;2.22;;;;;;;3.50;77.35;97342.25;4894250;29;20455;-63
2021/12/10 11:06:44;;;;;;;2.92;2.63;;;;;;;3.50;77.40;97339.69;4894127;28;20116;-62
2021/12/10 11:09:17;;;;;;;4.13;2.67;;;;;;;3.50;77.32;97337.16;4895306;29;20044;-62
2021/12/10 11:11:54;;;;;;;2.70;2.50;;;;;;;3.50;77.19;97337.16;4878439;29;20036;-62
2021/12/10 11:14:25;;;;;;;4.50;2.55;;;;;;;3.51;77.13;97343.09;4910064;28;20037;-62
2021/12/10 11:16:55;;;;;;;2.50;2.15;;;;;;;3.52;77.30;97344.81;4894349;29;20063;-62
2021/12/10 11:19:24;;;;;;;3.60;3.03;;;;;;;3.51;77.33;97355.91;4895376;29;20060;-63
2021/12/10 11:21:53;;;;;;;3.42;2.55;;;;;;;3.52;77.55;97342.25;4894018;29;20068;-62
2021/12/10 11:24:34;;;;;;;5.75;3.28;;;;;;;3.54;77.07;97347.41;4893849;29;20124;-62
2021/12/10 11:27:04;;;;;;;2.47;2.28;;;;;;;3.53;77.75;97348.25;4878507;29;20055;-63
2021/12/10 11:29:38;;;;;;;3.88;3.15;;;;;;;3.51;77.24;97350.78;4909328;29;20048;-63
2021/12/10 11:32:07;;;;;;;2.63;2.42;;;;;;;3.52;77.85;97354.22;4894089;29;20041;-63
2021/12/10 11:35:11;;;;;;;2.90;2.67;;;;;;;3.52;77.62;97352.50;4893769;29;20040;-62
2021/12/10 11:37:45;;;;;;;3.08;2.78;;;;;;;3.51;77.21;97355.91;4895207;28;20049;-63
2021/12/10 11:40:34;;;;;;;3.47;2.65;;;;;;;3.50;77.43;97362.75;4895765;29;20559;-62
2021/12/10 11:49:00;;;;;;;2.80;2.60;;;;;;;3.52;77.28;97364.47;4898188;29;20044;-63
2021/12/10 11:51:33;;;;;;;3.17;2.78;;;;;;;3.52;77.14;97370.44;4898031;29;20519;-62
2021/12/10 11:54:24;;;;;;;4.03;2.80;;;;;;;3.51;77.64;97368.72;4898350;29;20033;-62
2021/12/10 11:56:55;;;;;;;4.55;2.75;;;;;;;3.52;76.99;97372.16;4896813;29;20073;-63
2021/12/10 11:59:36;;;;;;;3.65;2.83;;;;;;;3.53;76.93;97381.53;4897762;29;20041;-63
2021/12/10 12:02:13;;;;;;;3.63;2.67;;;;;;;3.53;77.71;97386.66;4897559;29;20059;-63
2021/12/10 12:04:47;;;;;;;3.17;2.53;;;;;;;3.53;77.07;97382.38;4897244;29;20047;-62
2021/12/10 12:07:15;;;;;;;3.08;2.78;;;;;;;3.53;77.49;97382.38;4881080;28;20068;-63
2021/12/10 12:09:44;;;;;;;3.25;2.80;;;;;;;3.53;77.92;97387.50;4896587;29;20559;-63
2021/12/10 12:12:13;;;;;;;3.10;2.53;;;;;;;3.54;77.22;97389.22;4880960;28;20037;-63
2021/12/10 12:14:45;;;;;;;2.97;2.40;;;;;;;3.53;77.30;97390.06;4880893;29;20507;-62